Time;durP1;ratioP1;P1;durP2;ratioP2;P2;SDS_P1;SDS_P2;PMS_P1;PMS_P2;Temp;Humidity;BMP_temperature;BMP_pressure;BME280_temperature;BME280_humidity;BME280_pressure;Samples;Min_cycle;Max_cycle;Signal;HPM_P1;HPM_P2
2023/07/25 00:02:27;;;;;;;1.20;1.08;;;;;;;18.81;86.08;99329.69;5066985;28;20061;-73
2023/07/25 00:04:57;;;;;;;2.40;1.33;;;;;;;18.87;85.05;99333.59;5043379;28;21169;-72
2023/07/25 00:07:26;;;;;;;1.65;1.30;;;;;;;18.84;85.05;99344.63;5032163;28;20049;-73
2023/07/25 00:09:54;;;;;;;1.50;1.30;;;;;;;18.79;85.12;99345.06;5048010;28;20041;-73
2023/07/25 00:12:23;;;;;;;1.42;1.20;;;;;;;18.73;86.30;99348.34;5052483;28;20051;-73
2023/07/25 00:14:51;;;;;;;1.80;1.10;;;;;;;18.67;86.12;99340.06;5058130;28;20040;-73
2023/07/25 00:17:21;;;;;;;1.90;1.38;;;;;;;18.65;86.55;99339.38;5065484;28;20056;-73
2023/07/25 00:19:50;;;;;;;2.08;1.27;;;;;;;18.51;88.14;99316.53;5033531;28;20432;-74
2023/07/25 00:22:17;;;;;;;1.95;1.38;;;;;;;18.53;88.94;99320.78;5029769;28;20476;-73
2023/07/25 00:24:47;;;;;;;2.38;1.30;;;;;;;18.53;89.10;99326.13;5055112;28;20102;-73
2023/07/25 00:27:15;;;;;;;2.05;1.50;;;;;;;18.52;88.88;99327.13;5063875;28;20040;-74
2023/07/25 00:29:43;;;;;;;1.83;1.20;;;;;;;18.50;89.06;99320.22;5048043;28;20048;-75
2023/07/25 00:32:12;;;;;;;2.33;1.50;;;;;;;18.47;89.70;99323.19;5049544;28;20036;-73
2023/07/25 00:34:41;;;;;;;1.85;1.30;;;;;;;18.46;89.66;99314.31;5026024;28;20127;-74
2023/07/25 00:37:09;;;;;;;3.05;1.50;;;;;;;18.53;90.64;99322.59;5068089;28;20564;-73
2023/07/25 00:39:38;;;;;;;2.42;1.35;;;;;;;18.53;90.47;99320.78;5037093;28;20500;-73
2023/07/25 00:42:10;;;;;;;3.08;1.50;;;;;;;18.51;90.45;99319.22;5070431;28;20050;-73
2023/07/25 00:44:38;;;;;;;3.08;1.30;;;;;;;18.52;91.30;99313.72;5044226;28;20041;-73
2023/07/25 00:47:06;;;;;;;1.92;1.50;;;;;;;18.52;90.64;99319.09;5055382;28;20071;-73
2023/07/25 00:49:34;;;;;;;2.80;1.63;;;;;;;18.49;91.19;99324.72;5081582;28;20044;-72
2023/07/25 00:52:02;;;;;;;2.45;1.30;;;;;;;18.41;91.43;99316.59;5056763;28;20090;-73
2023/07/25 00:54:30;;;;;;;2.22;1.60;;;;;;;18.45;91.64;99317.97;5066858;28;20123;-72
2023/07/25 00:56:59;;;;;;;1.67;1.30;;;;;;;18.42;91.83;99302.19;5066465;28;20058;-72
2023/07/25 00:59:30;;;;;;;2.25;1.70;;;;;;;18.43;92.53;99303.88;5030208;28;20056;-73
2023/07/25 01:02:00;;;;;;;3.20;1.58;;;;;;;18.34;92.64;99291.38;5050669;28;20107;-72
2023/07/25 01:04:29;;;;;;;2.72;1.60;;;;;;;18.41;93.56;99310.41;5048618;28;20294;-73
2023/07/25 01:06:57;;;;;;;2.83;1.40;;;;;;;18.40;93.62;99312.22;5044965;28;20110;-73
2023/07/25 01:09:35;;;;;;;2.40;1.30;;;;;;;18.39;93.77;99307.84;5068618;28;20044;-73
2023/07/25 01:12:04;;;;;;;1.67;1.45;;;;;;;18.37;95.26;99307.16;5067646;28;20048;-73
2023/07/25 01:14:35;;;;;;;1.95;1.55;;;;;;;18.32;95.47;99301.38;5046493;28;20049;-74
2023/07/25 01:17:07;;;;;;;1.80;1.33;;;;;;;18.35;96.33;99317.19;5043876;28;20382;-73
2023/07/25 01:19:38;;;;;;;2.53;1.50;;;;;;;18.28;96.86;99301.81;5067663;28;20047;-73
2023/07/25 01:22:07;;;;;;;;;;;;;;;18.30;97.52;99302.53;5064678;28;20056;-73
2023/07/25 01:24:41;;;;;;;2.25;1.67;;;;;;;18.23;97.22;99297.78;5043762;28;20017;-73
2023/07/25 01:27:09;;;;;;;2.92;1.67;;;;;;;18.12;98.40;99300.63;5046283;28;20062;-73
2023/07/25 01:29:37;;;;;;;3.67;1.40;;;;;;;17.94;99.90;99285.47;5045174;28;20057;-73
2023/07/25 01:32:06;;;;;;;3.35;1.98;;;;;;;17.90;100.00;99298.31;5051247;28;20063;-73
2023/07/25 01:34:34;;;;;;;2.15;1.50;;;;;;;17.82;100.00;99296.34;5035643;28;20041;-73
2023/07/25 01:37:05;;;;;;;3.50;1.85;;;;;;;17.80;100.00;99286.75;5076432;28;20045;-73
2023/07/25 01:39:33;;;;;;;4.78;1.67;;;;;;;17.82;100.00;99292.81;5052168;28;20049;-74
2023/07/25 01:42:03;;;;;;;2.13;1.40;;;;;;;17.83;100.00;99287.31;5035041;28;20505;-73
2023/07/25 01:44:31;;;;;;;3.15;1.77;;;;;;;17.82;100.00;99280.25;5043929;28;20130;-73
2023/07/25 01:47:00;;;;;;;1.75;1.65;;;;;;;17.86;100.00;99284.34;5046442;28;20041;-74
2023/07/25 01:49:29;;;;;;;2.08;1.70;;;;;;;17.90;100.00;99284.91;5068987;28;20044;-73
2023/07/25 01:51:57;;;;;;;1.45;1.33;;;;;;;17.96;100.00;99299.53;5071812;28;20716;-73
2023/07/25 01:54:26;;;;;;;3.97;1.38;;;;;;;17.96;100.00;99297.69;5045729;28;20132;-73
2023/07/25 01:56:55;;;;;;;3.75;1.80;;;;;;;17.98;100.00;99290.38;5063130;28;20524;-74
2023/07/25 01:59:28;;;;;;;2.10;1.50;;;;;;;17.93;100.00;99281.09;5056090;28;20044;-73
2023/07/25 02:01:56;;;;;;;1.63;1.30;;;;;;;17.94;100.00;99274.75;5056227;28;20063;-73
2023/07/25 02:04:24;;;;;;;1.88;1.40;;;;;;;18.00;100.00;99292.91;5037321;28;20045;-74
2023/07/25 02:06:51;;;;;;;1.83;1.40;;;;;;;18.00;100.00;99284.88;5060882;28;20040;-74
2023/07/25 02:09:19;;;;;;;1.73;1.50;;;;;;;18.02;100.00;99289.09;5033684;28;20043;-73
2023/07/25 02:11:47;;;;;;;2.15;1.17;;;;;;;18.07;100.00;99296.72;5056268;28;20485;-73
2023/07/25 02:14:16;;;;;;;1.85;1.45;;;;;;;18.05;100.00;99287.97;5070006;28;20593;-73
2023/07/25 02:16:46;;;;;;;2.83;1.38;;;;;;;18.04;100.00;99292.47;5043624;28;20090;-73
2023/07/25 02:19:15;;;;;;;2.38;1.80;;;;;;;18.03;100.00;99295.28;5044043;28;20045;-73
2023/07/25 02:21:43;;;;;;;2.13;1.58;;;;;;;17.98;100.00;99298.41;5033132;28;20135;-73
2023/07/25 02:24:14;;;;;;;1.98;1.60;;;;;;;17.99;100.00;99304.59;5052794;28;20042;-72
2023/07/25 02:26:43;;;;;;;2.38;1.67;;;;;;;17.92;100.00;99295.47;5038411;28;20045;-74
2023/07/25 02:29:11;;;;;;;2.53;1.85;;;;;;;17.81;100.00;99286.59;5038472;28;20067;-73
2023/07/25 02:31:40;;;;;;;3.15;1.88;;;;;;;17.80;100.00;99294.78;5054308;28;20056;-74
2023/07/25 02:34:09;;;;;;;2.20;1.92;;;;;;;17.74;100.00;99292.69;5069524;28;20134;-75
2023/07/25 02:36:42;;;;;;;2.65;2.45;;;;;;;17.59;100.00;99296.78;5027896;28;20495;-72
2023/07/25 02:39:11;;;;;;;2.95;2.40;;;;;;;17.48;100.00;99290.56;5052294;28;20537;-72
2023/07/25 02:41:39;;;;;;;2.20;2.00;;;;;;;17.46;100.00;99302.44;5047106;28;20045;-73
2023/07/25 02:44:08;;;;;;;3.95;2.47;;;;;;;17.42;100.00;99298.34;5034337;28;20041;-72
2023/07/25 02:46:36;;;;;;;4.20;2.60;;;;;;;17.32;100.00;99289.47;5042569;28;20056;-73
2023/07/25 02:49:06;;;;;;;3.60;2.65;;;;;;;17.32;100.00;99295.66;5032825;28;20132;-73
2023/07/25 02:51:35;;;;;;;4.33;2.73;;;;;;;17.24;100.00;99284.84;5051607;28;20054;-73
2023/07/25 02:54:03;;;;;;;4.23;2.87;;;;;;;17.19;100.00;99284.41;5050140;28;20583;-73
2023/07/25 02:56:31;;;;;;;2.75;2.55;;;;;;;17.16;100.00;99280.16;5065070;28;20041;-74
2023/07/25 02:59:01;;;;;;;3.42;2.85;;;;;;;17.17;100.00;99278.34;5055180;28;20424;-74
2023/07/25 03:01:32;;;;;;;3.30;2.90;;;;;;;17.13;100.00;99275.13;5048123;28;20142;-73
2023/07/25 03:04:01;;;;;;;4.90;3.13;;;;;;;17.11;100.00;99270.91;5056753;28;20080;-71
2023/07/25 03:06:31;;;;;;;3.83;2.78;;;;;;;17.11;100.00;99274.41;5016370;28;20037;-73
2023/07/25 03:09:01;;;;;;;;;;;;;;;17.11;100.00;99270.91;5037804;28;20045;-73
2023/07/25 03:11:29;;;;;;;4.30;3.22;;;;;;;17.12;100.00;99281.47;5053538;28;19928;-73
2023/07/25 03:13:58;;;;;;;4.45;3.70;;;;;;;17.07;100.00;99243.59;5051812;28;20509;-72
2023/07/25 03:16:26;;;;;;;4.90;3.58;;;;;;;17.14;100.00;99260.78;5035004;28;20067;-72
2023/07/25 03:18:54;;;;;;;5.57;3.67;;;;;;;17.04;100.00;99251.03;5051037;28;20045;-72
2023/07/25 03:21:22;;;;;;;5.38;3.72;;;;;;;17.02;100.00;99258.34;5034657;28;20110;-73
2023/07/25 03:23:50;;;;;;;4.32;3.85;;;;;;;16.99;100.00;99253.31;5033308;28;20590;-73
2023/07/25 03:26:20;;;;;;;5.97;4.20;;;;;;;16.93;100.00;99254.69;5038891;28;20041;-72
2023/07/25 03:28:48;;;;;;;5.75;4.30;;;;;;;16.93;100.00;99254.69;5055097;28;20045;-73
2023/07/25 03:31:16;;;;;;;5.82;4.53;;;;;;;16.92;100.00;99247.66;5047864;28;20132;-73
2023/07/25 03:33:44;;;;;;;5.72;4.55;;;;;;;16.89;100.00;99247.94;5046937;28;20045;-74
2023/07/25 03:36:12;;;;;;;7.90;5.35;;;;;;;16.91;100.00;99250.47;5024960;28;20049;-73
2023/07/25 03:38:41;;;;;;;5.75;4.78;;;;;;;16.88;100.00;99250.75;5050802;28;20071;-74
2023/07/25 03:41:09;;;;;;;5.28;4.75;;;;;;;16.74;100.00;99226.13;5057746;28;20497;-73
2023/07/25 03:43:39;;;;;;;8.10;5.05;;;;;;;16.86;100.00;99239.34;5049869;28;20044;-73
2023/07/25 03:46:07;;;;;;;6.10;5.00;;;;;;;16.89;100.00;99239.91;5042606;28;20044;-74
2023/07/25 03:48:35;;;;;;;5.93;5.00;;;;;;;16.84;100.00;99229.63;5051440;28;20851;-73
2023/07/25 03:51:03;;;;;;;6.35;5.47;;;;;;;16.84;100.00;99218.94;5038311;28;20034;-73
2023/07/25 03:53:32;;;;;;;9.65;5.95;;;;;;;16.87;100.00;99225.00;5049222;28;20111;-72
2023/07/25 03:56:00;;;;;;;7.90;5.80;;;;;;;16.72;100.00;99212.03;5043883;28;20041;-73
2023/07/25 03:58:28;;;;;;;8.63;5.82;;;;;;;16.72;100.00;99220.06;5047286;28;20382;-72
2023/07/25 04:01:02;;;;;;;10.32;6.10;;;;;;;16.69;100.00;99225.69;5059596;28;20063;-73
2023/07/25 04:03:30;;;;;;;8.13;6.20;;;;;;;16.64;100.00;99229.78;5040598;28;20079;-74
2023/07/25 04:06:00;;;;;;;7.53;6.22;;;;;;;16.55;100.00;99209.16;5046750;28;20572;-73
2023/07/25 04:08:28;;;;;;;6.93;6.00;;;;;;;16.63;100.00;99212.03;5049557;28;20090;-75
2023/07/25 04:10:57;;;;;;;7.00;5.55;;;;;;;16.60;100.00;99206.94;5050258;28;20140;-74
2023/07/25 04:13:26;;;;;;;6.47;5.63;;;;;;;16.62;100.00;99196.97;5048182;28;20056;-74
2023/07/25 04:15:54;;;;;;;6.30;5.68;;;;;;;16.62;100.00;99204.97;5071875;28;20420;-73
2023/07/25 04:18:26;;;;;;;8.70;6.40;;;;;;;16.54;100.00;99202.13;5043985;28;20508;-74
2023/07/25 04:20:54;;;;;;;9.23;6.78;;;;;;;16.39;100.00;99210.56;5053938;28;20063;-73
2023/07/25 04:23:22;;;;;;;10.10;7.45;;;;;;;16.15;100.00;99194.06;5037643;28;20115;-73
2023/07/25 04:25:51;;;;;;;8.60;6.72;;;;;;;16.02;100.00;99202.31;5066854;28;20119;-75
2023/07/25 04:28:19;;;;;;;9.57;7.75;;;;;;;15.83;100.00;99202.25;5042380;28;20052;-74
2023/07/25 04:30:48;;;;;;;13.02;8.20;;;;;;;15.69;100.00;99199.94;5052997;28;20052;-75
2023/07/25 04:33:17;;;;;;;10.40;8.15;;;;;;;15.49;100.00;99190.94;5017279;28;20117;-74
2023/07/25 04:35:46;;;;;;;11.63;9.60;;;;;;;15.51;100.00;99205.00;5020913;28;20140;-74
2023/07/25 04:38:15;;;;;;;11.65;9.63;;;;;;;15.43;100.00;99199.47;5036231;28;20385;-75
2023/07/25 04:40:43;;;;;;;14.40;10.05;;;;;;;15.45;100.00;99202.84;5048150;28;20064;-75
2023/07/25 04:43:12;;;;;;;13.05;10.55;;;;;;;15.47;100.00;99198.22;5049517;28;20044;-76
2023/07/25 04:45:45;;;;;;;15.88;11.93;;;;;;;15.52;100.00;99203.16;5049216;28;20051;-76
2023/07/25 04:48:21;;;;;;;15.27;10.73;;;;;;;15.51;100.00;99185.47;5056095;28;20040;-76
2023/07/25 04:50:51;;;;;;;13.70;10.85;;;;;;;15.46;100.00;99177.84;5080028;28;20041;-75
2023/07/25 04:53:19;;;;;;;15.33;10.57;;;;;;;15.65;100.00;99223.34;5062826;28;20098;-76
2023/07/25 04:55:47;;;;;;;13.00;10.13;;;;;;;15.66;100.00;99222.38;5058069;28;20106;-76
2023/07/25 04:58:15;;;;;;;13.27;10.63;;;;;;;15.67;100.00;99228.56;5049295;28;20455;-76
2023/07/25 05:00:44;;;;;;;16.02;11.77;;;;;;;15.64;100.00;99220.81;5041684;28;20049;-76
2023/07/25 05:03:13;;;;;;;14.43;11.40;;;;;;;15.73;100.00;99234.22;5038870;28;20057;-76
2023/07/25 05:05:41;;;;;;;14.88;11.55;;;;;;;15.64;100.00;99234.16;5068701;28;20462;-75
2023/07/25 05:08:10;;;;;;;18.23;12.85;;;;;;;15.61;100.00;99237.94;5026669;28;20040;-76
2023/07/25 05:10:38;;;;;;;17.23;12.15;;;;;;;15.60;100.00;99244.25;5048134;28;20532;-75
2023/07/25 05:13:06;;;;;;;17.83;13.48;;;;;;;15.59;100.00;99234.56;5049935;28;20121;-75
2023/07/25 05:15:38;;;;;;;16.38;12.70;;;;;;;15.58;100.00;99240.91;5046871;28;20072;-75
2023/07/25 05:18:06;;;;;;;19.20;12.50;;;;;;;15.61;100.00;99248.59;5025299;28;20126;-74
2023/07/25 05:20:34;;;;;;;18.83;13.80;;;;;;;15.62;100.00;99247.63;5069781;28;20044;-75
2023/07/25 05:23:02;;;;;;;18.90;12.90;;;;;;;15.54;100.00;99242.09;5068665;28;20067;-75
2023/07/25 05:25:34;;;;;;;19.13;13.68;;;;;;;15.62;100.00;99252.97;5051229;28;20041;-76
2023/07/25 05:28:03;;;;;;;18.98;13.43;;;;;;;15.67;100.00;99256.09;5044075;28;20105;-75
2023/07/25 05:30:31;;;;;;;17.23;13.82;;;;;;;15.64;100.00;99251.03;5055438;28;20059;-74
2023/07/25 05:33:00;;;;;;;19.45;13.52;;;;;;;15.64;100.00;99252.84;5058345;28;20057;-76
2023/07/25 05:35:29;;;;;;;18.85;13.57;;;;;;;15.61;100.00;99248.59;5049357;28;20044;-76
2023/07/25 05:38:02;;;;;;;18.83;13.55;;;;;;;15.64;100.00;99253.69;5032190;28;20044;-75
2023/07/25 05:40:32;;;;;;;18.73;14.23;;;;;;;15.65;100.00;99266.06;5054066;28;20052;-76
2023/07/25 05:43:00;;;;;;;17.70;13.98;;;;;;;15.64;100.00;99258.19;5034337;28;20040;-76
2023/07/25 05:45:29;;;;;;;16.48;12.95;;;;;;;15.61;100.00;99261.09;5050263;28;20076;-75
2023/07/25 05:47:57;;;;;;;18.77;13.87;;;;;;;15.58;100.00;99259.56;5048285;28;20068;-75
2023/07/25 05:50:25;;;;;;;18.55;14.10;;;;;;;15.59;100.00;99257.72;5075918;28;20044;-76
2023/07/25 05:52:53;;;;;;;18.52;13.60;;;;;;;15.58;100.00;99262.25;5055705;28;20123;-77
2023/07/25 05:55:24;;;;;;;19.30;14.07;;;;;;;15.58;100.00;99262.25;5054993;28;20044;-76
2023/07/25 05:57:55;;;;;;;21.30;15.77;;;;;;;15.61;100.00;99253.09;5047900;28;20040;-75
2023/07/25 06:00:23;;;;;;;19.38;15.52;;;;;;;15.62;100.00;99252.97;5072046;28;20098;-76
2023/07/25 06:02:55;;;;;;;22.73;16.25;;;;;;;15.62;100.00;99244.13;5053714;28;20057;-77
2023/07/25 06:05:23;;;;;;;26.23;16.60;;;;;;;15.54;100.00;99239.44;5073019;28;20064;-75
2023/07/25 06:07:51;;;;;;;26.67;16.65;;;;;;;15.52;100.00;99244.03;5044080;28;20123;-74
2023/07/25 06:10:19;;;;;;;24.27;17.10;;;;;;;15.55;100.00;99243.81;5051488;28;20063;-74
2023/07/25 06:12:47;;;;;;;20.90;16.30;;;;;;;15.60;100.00;99243.41;5039878;28;20068;-74
2023/07/25 06:15:17;;;;;;;23.95;16.58;;;;;;;15.50;100.00;99231.81;5056240;28;20098;-74
2023/07/25 06:17:45;;;;;;;22.53;16.03;;;;;;;15.53;100.00;99243.06;5046225;28;20047;-75
2023/07/25 06:20:15;;;;;;;24.38;16.65;;;;;;;15.45;100.00;99226.84;5070653;28;20084;-75
2023/07/25 06:22:43;;;;;;;23.05;16.83;;;;;;;15.53;100.00;99232.41;5070662;28;20052;-74
2023/07/25 06:25:15;;;;;;;24.25;16.60;;;;;;;15.51;100.00;99234.34;5054305;28;20040;-75
2023/07/25 06:27:43;;;;;;;27.55;18.77;;;;;;;15.56;100.00;99236.66;5029258;28;20137;-75
2023/07/25 06:30:11;;;;;;;24.02;17.90;;;;;;;15.62;100.00;99236.97;5075347;28;20620;-76
2023/07/25 06:32:43;;;;;;;23.17;17.27;;;;;;;15.65;100.00;99231.38;5074655;28;20049;-75
2023/07/25 06:35:11;;;;;;;26.90;17.10;;;;;;;15.61;100.00;99223.75;5058352;28;20056;-76
2023/07/25 06:37:41;;;;;;;24.17;17.10;;;;;;;15.57;100.00;99233.88;5064142;28;20048;-74
2023/07/25 06:40:11;;;;;;;22.08;16.77;;;;;;;15.53;100.00;99211.06;5062179;28;20098;-75
2023/07/25 06:42:39;;;;;;;;;;;;;;;15.59;100.00;99217.69;5056303;28;20044;-74
2023/07/25 06:45:11;;;;;;;25.98;18.20;;;;;;;15.43;100.00;99180.78;5054562;28;19921;-74
2023/07/25 06:47:39;;;;;;;24.25;17.90;;;;;;;15.60;100.00;99212.22;5030533;28;20139;-74
2023/07/25 06:50:09;;;;;;;22.42;17.40;;;;;;;15.62;100.00;99212.94;5051718;28;20127;-74
2023/07/25 06:52:37;;;;;;;26.45;18.38;;;;;;;15.65;100.00;99210.00;5036009;28;20060;-77
2023/07/25 06:55:06;;;;;;;23.60;16.90;;;;;;;15.65;100.00;99207.34;5056694;28;20056;-74
2023/07/25 06:57:34;;;;;;;24.92;17.92;;;;;;;15.65;100.00;99207.34;5041926;28;20036;-74
2023/07/25 07:00:03;;;;;;;28.33;17.45;;;;;;;15.68;100.00;99196.41;5067795;28;20051;-75
2023/07/25 07:02:32;;;;;;;32.50;18.13;;;;;;;15.67;100.00;99202.72;5035981;28;20152;-74
2023/07/25 07:05:03;;;;;;;26.00;17.23;;;;;;;15.63;100.00;99201.28;5061331;28;20504;-74
2023/07/25 07:07:53;;;;;;;27.42;16.85;;;;;;;15.64;100.00;99188.78;5033987;28;20040;-73
2023/07/25 07:10:25;;;;;;;23.55;16.15;;;;;;;15.72;100.00;99194.31;5055653;28;20052;-74
2023/07/25 07:12:58;;;;;;;20.65;15.10;;;;;;;15.69;100.00;99173.25;5081693;28;20060;-75
2023/07/25 07:15:27;;;;;;;22.48;15.18;;;;;;;15.83;100.00;99188.88;5079735;28;20439;-75
2023/07/25 07:17:55;;;;;;;19.15;13.80;;;;;;;15.87;100.00;99190.31;5044553;28;20048;-75
2023/07/25 07:20:24;;;;;;;17.77;12.55;;;;;;;15.82;100.00;99189.88;5047039;28;20064;-76
2023/07/25 07:22:54;;;;;;;16.63;12.80;;;;;;;15.56;100.00;99143.28;5049412;28;20052;-75
2023/07/25 07:25:22;;;;;;;;;;;;;;;15.71;100.00;99190.81;5050156;28;20140;-75
2023/07/25 07:27:50;;;;;;;18.80;13.63;;;;;;;15.64;100.00;99188.78;5062377;28;19925;-74
2023/07/25 07:30:18;;;;;;;22.95;17.17;;;;;;;15.56;100.00;99188.63;5063166;28;20080;-74
2023/07/25 07:32:47;;;;;;;25.52;15.55;;;;;;;15.52;100.00;99187.16;5049817;28;20432;-74
2023/07/25 07:35:15;;;;;;;20.40;14.02;;;;;;;15.52;100.00;99193.34;5049044;28;20127;-74
2023/07/25 07:37:45;;;;;;;16.50;13.07;;;;;;;15.35;100.00;99185.94;5044782;28;20102;-74
2023/07/25 07:40:15;;;;;;;17.13;13.65;;;;;;;15.39;100.00;99208.72;5050571;28;20071;-74
2023/07/25 07:42:43;;;;;;;17.67;13.10;;;;;;;15.30;100.00;99198.81;5067395;28;20550;-73
2023/07/25 07:45:11;;;;;;;18.42;13.07;;;;;;;15.23;100.00;99213.66;5052894;28;20071;-76
2023/07/25 07:47:39;;;;;;;24.25;15.95;;;;;;;15.23;100.00;99221.66;5049528;28;20039;-73
2023/07/25 07:50:08;;;;;;;20.50;15.07;;;;;;;15.22;100.00;99228.81;5026594;28;20075;-74
2023/07/25 07:52:41;;;;;;;23.80;15.55;;;;;;;15.22;100.00;99212.81;5077071;28;20041;-74
2023/07/25 07:55:11;;;;;;;21.13;14.77;;;;;;;15.21;100.00;99205.78;5077842;28;20044;-73
2023/07/25 07:57:41;;;;;;;25.90;16.35;;;;;;;15.26;100.00;99208.09;5069436;28;20139;-72
2023/07/25 08:00:14;;;;;;;21.33;15.63;;;;;;;15.31;100.00;99213.84;5056288;28;20044;-73
2023/07/25 08:02:43;;;;;;;25.80;15.73;;;;;;;15.24;100.00;99194.03;5076524;28;20064;-74
2023/07/25 08:05:12;;;;;;;20.73;15.68;;;;;;;15.27;100.00;99204.41;5073311;28;20140;-74
2023/07/25 08:07:41;;;;;;;21.35;15.25;;;;;;;15.30;100.00;99205.00;5052953;28;20056;-72
2023/07/25 08:10:11;;;;;;;24.85;15.77;;;;;;;15.27;100.00;99209.75;5070655;28;20070;-73
2023/07/25 08:12:41;;;;;;;21.67;14.98;;;;;;;15.24;100.00;99221.53;5056996;28;20048;-73
2023/07/25 08:15:10;;;;;;;26.23;16.38;;;;;;;15.25;100.00;99211.72;5075285;28;20035;-72
2023/07/25 08:17:39;;;;;;;23.33;16.52;;;;;;;15.26;100.00;99214.25;5052458;28;20042;-71
2023/07/25 08:20:08;;;;;;;23.10;15.88;;;;;;;15.28;100.00;99196.28;5062979;28;20044;-72
2023/07/25 08:22:39;;;;;;;20.93;14.20;;;;;;;15.23;100.00;99193.19;5049505;28;20136;-74
2023/07/25 08:25:08;;;;;;;19.63;14.38;;;;;;;15.14;100.00;99187.75;5035090;28;20476;-74
2023/07/25 08:27:36;;;;;;;22.15;14.65;;;;;;;15.23;100.00;99195.00;5054972;28;20049;-73
2023/07/25 08:30:08;;;;;;;22.10;14.32;;;;;;;15.24;100.00;99188.69;5066043;28;20032;-74
2023/07/25 08:32:37;;;;;;;18.67;13.55;;;;;;;15.25;100.00;99195.72;5068109;28;20098;-73
2023/07/25 08:35:07;;;;;;;18.08;13.10;;;;;;;15.30;100.00;99188.16;5050259;28;20050;-73
2023/07/25 08:37:36;;;;;;;15.50;12.07;;;;;;;15.25;100.00;99185.91;5050197;28;20045;-71
2023/07/25 08:40:08;;;;;;;16.15;12.40;;;;;;;15.25;100.00;99195.72;5066585;28;20068;-73
2023/07/25 08:42:38;;;;;;;15.07;11.38;;;;;;;15.17;100.00;99192.84;5053473;28;20572;-74
2023/07/25 08:45:10;;;;;;;16.20;12.25;;;;;;;15.18;100.00;99194.53;5071863;28;20492;-74
2023/07/25 08:47:40;;;;;;;16.23;11.77;;;;;;;15.08;100.00;99198.00;5071352;28;20045;-72
2023/07/25 08:50:15;;;;;;;13.48;11.35;;;;;;;15.08;100.00;99206.00;5056560;28;20048;-73
2023/07/25 08:52:50;;;;;;;13.98;11.07;;;;;;;14.92;100.00;99202.06;5074097;28;20059;-74
2023/07/25 08:55:21;;;;;;;14.65;10.88;;;;;;;14.85;100.00;99195.56;5057515;28;20055;-73
2023/07/25 08:57:51;;;;;;;13.13;10.88;;;;;;;14.88;100.00;99222.81;5075308;28;20040;-73
2023/07/25 09:00:24;;;;;;;14.98;11.07;;;;;;;14.78;100.00;99232.53;5071161;28;20048;-74
2023/07/25 09:02:54;;;;;;;14.52;11.20;;;;;;;14.77;100.00;99235.34;5075801;28;20044;-73
2023/07/25 09:05:23;;;;;;;15.57;12.35;;;;;;;14.79;100.00;99236.06;5069725;28;20071;-74
2023/07/25 09:07:58;;;;;;;17.42;11.80;;;;;;;14.76;100.00;99225.66;5054491;28;20136;-74
2023/07/25 09:10:29;;;;;;;18.13;12.90;;;;;;;14.77;100.00;99227.34;5070464;28;20040;-75
2023/07/25 09:12:57;;;;;;;12.80;10.55;;;;;;;14.86;100.00;99240.75;5058733;28;20130;-74
2023/07/25 09:15:28;;;;;;;16.38;10.63;;;;;;;14.85;100.00;99235.53;5070610;28;20080;-74
2023/07/25 09:17:57;;;;;;;13.63;9.83;;;;;;;14.82;100.00;99228.63;5069471;28;20075;-75
2023/07/25 09:20:25;;;;;;;13.05;9.23;;;;;;;14.83;100.00;99221.47;5064783;28;20482;-74
2023/07/25 09:22:53;;;;;;;10.52;8.98;;;;;;;14.88;100.00;99214.81;5036181;28;20529;-74
2023/07/25 09:25:26;;;;;;;13.02;10.40;;;;;;;14.96;100.00;99201.66;5071058;28;20045;-76
2023/07/25 09:27:55;;;;;;;13.25;10.05;;;;;;;15.12;100.00;99208.38;5070009;28;20041;-74
2023/07/25 09:30:28;;;;;;;13.68;10.07;;;;;;;15.19;100.00;99197.06;5057255;28;20049;-75
2023/07/25 09:32:56;;;;;;;11.40;9.70;;;;;;;15.40;100.00;99208.59;5043752;28;20032;-76
2023/07/25 09:35:25;;;;;;;11.93;9.00;;;;;;;15.52;100.00;99200.50;5066790;28;20053;-73
2023/07/25 09:37:57;;;;;;;12.10;9.60;;;;;;;15.62;100.00;99199.59;5050540;28;20049;-71
2023/07/25 09:40:26;;;;;;;11.85;8.77;;;;;;;15.73;100.00;99196.88;5047391;28;20051;-74
2023/07/25 09:42:57;;;;;;;10.43;8.80;;;;;;;15.81;100.00;99206.00;5055875;28;20120;-76
2023/07/25 09:45:24;;;;;;;;;;;;;;;15.79;100.00;99200.81;5054724;28;20132;-75
2023/07/25 09:47:56;;;;;;;13.15;9.07;;;;;;;15.79;100.00;99207.00;5066513;28;19926;-74
2023/07/25 09:50:27;;;;;;;11.23;8.90;;;;;;;15.77;100.00;99200.94;5059132;28;20109;-74
2023/07/25 09:52:59;;;;;;;12.95;9.18;;;;;;;15.75;100.00;99189.53;5073412;28;20036;-73
2023/07/25 09:55:27;;;;;;;11.48;9.25;;;;;;;15.83;100.00;99209.41;5050711;28;20047;-76
2023/07/25 09:57:55;;;;;;;10.15;8.10;;;;;;;15.76;100.00;99196.56;5051250;28;20063;-74
2023/07/25 10:00:24;;;;;;;9.00;8.05;;;;;;;15.69;100.00;99190.09;5039526;28;20049;-74
2023/07/25 10:02:53;;;;;;;9.65;8.02;;;;;;;15.60;100.00;99176.69;5051566;28;20191;-74
2023/07/25 10:05:23;;;;;;;10.52;8.50;;;;;;;15.58;100.00;99176.00;5069214;28;20417;-74
2023/07/25 10:07:54;;;;;;;13.05;7.95;;;;;;;15.65;100.00;99194.00;5046185;28;20045;-74
2023/07/25 10:13:09;;;;;;;7.80;6.07;;;;;;;15.45;100.00;99189.50;5073182;28;20048;-73
2023/07/25 10:15:40;;;;;;;6.43;5.47;;;;;;;15.52;100.00;99200.50;5071165;28;20107;-73
2023/07/25 10:18:18;;;;;;;6.18;5.07;;;;;;;15.48;100.00;99207.91;5056905;28;20055;-74
2023/07/25 10:20:50;;;;;;;7.68;5.55;;;;;;;15.42;100.00;99209.28;5044788;28;20413;-74
2023/07/25 10:23:19;;;;;;;6.80;5.95;;;;;;;15.51;100.00;99207.66;5052472;28;20052;-74
2023/07/25 10:25:50;;;;;;;7.72;5.85;;;;;;;15.61;100.00;99210.41;5053985;28;20139;-73
2023/07/25 10:28:24;;;;;;;7.97;6.40;;;;;;;15.74;100.00;99219.06;5055874;28;20044;-72
2023/07/25 10:30:52;;;;;;;8.27;5.88;;;;;;;15.96;100.00;99229.53;5065177;28;20033;-71
2023/07/25 10:33:25;;;;;;;7.03;5.55;;;;;;;15.99;100.00;99231.94;5068551;28;20044;-71
2023/07/25 10:35:56;;;;;;;6.25;5.22;;;;;;;16.05;100.00;99239.44;5057853;28;20045;-72
2023/07/25 10:38:30;;;;;;;;;;;;;;;16.10;100.00;99237.19;5073738;28;20048;-72
2023/07/25 10:41:00;;;;;;;4.30;3.90;;;;;;;16.17;100.00;99244.66;5063719;28;20392;-73
2023/07/25 10:43:29;;;;;;;4.45;4.05;;;;;;;16.19;100.00;99235.53;5052015;28;20045;-72
2023/07/25 10:46:01;;;;;;;4.82;4.18;;;;;;;16.37;100.00;99247.25;5051831;28;20112;-73
2023/07/25 10:48:31;;;;;;;4.35;3.95;;;;;;;16.48;100.00;99247.16;5034410;28;20067;-73
2023/07/25 10:51:04;;;;;;;5.10;3.92;;;;;;;16.58;100.00;99247.16;5048612;28;20041;-73
2023/07/25 10:53:33;;;;;;;4.93;4.20;;;;;;;16.59;100.00;99259.53;5049182;28;20053;-72
2023/07/25 10:56:16;;;;;;;4.88;3.97;;;;;;;16.61;100.00;99252.25;5024818;28;20072;-72
2023/07/25 10:59:05;;;;;;;4.95;4.28;;;;;;;16.49;100.00;99264.88;5060994;28;20059;-72
2023/07/25 11:01:43;;;;;;;4.28;3.88;;;;;;;16.54;100.00;99274.28;5068880;28;20067;-71
2023/07/25 11:04:24;;;;;;;3.90;3.10;;;;;;;16.43;100.00;99289.47;5067268;28;20072;-73
2023/07/25 11:06:55;;;;;;;3.30;2.80;;;;;;;16.40;100.00;99280.88;5072275;28;20048;-74
2023/07/25 11:09:23;;;;;;;3.95;3.22;;;;;;;16.32;100.00;99278.88;5065438;28;20059;-73
2023/07/25 11:11:52;;;;;;;3.60;2.78;;;;;;;16.39;100.00;99289.84;5043517;28;20048;-75
2023/07/25 11:14:21;;;;;;;3.08;2.67;;;;;;;16.51;100.00;99277.25;5069550;28;20067;-75
2023/07/25 11:16:52;;;;;;;2.88;2.53;;;;;;;16.65;100.00;99285.75;5033606;28;20094;-76
2023/07/25 11:19:29;;;;;;;3.83;2.70;;;;;;;16.74;100.00;99284.09;5062641;28;20131;-75
2023/07/25 11:21:58;;;;;;;2.97;2.58;;;;;;;16.85;100.00;99297.31;5049898;28;20045;-75
2023/07/25 11:24:27;;;;;;;2.77;2.47;;;;;;;17.01;100.00;99292.28;5035433;28;20052;-74
2023/07/25 11:26:56;;;;;;;2.38;2.17;;;;;;;17.25;100.00;99283.84;5047956;28;20044;-76
2023/07/25 11:29:24;;;;;;;2.55;2.20;;;;;;;17.53;100.00;99293.69;5016785;28;20024;-77
2023/07/25 11:31:53;;;;;;;2.15;1.63;;;;;;;17.83;100.00;99298.03;5064715;28;20060;-77
2023/07/25 11:34:21;;;;;;;1.73;1.63;;;;;;;17.70;100.00;99302.84;5052318;28;20171;-77